Terminal Aerodrome Forecast
Issued by NWS Sioux Falls, SD

Home | Current Version | Previous Version | Text Only | Print | Product List | Glossary On
Versions: 1 2 3 4 5 6 7 8 9 10 11 12 13 14 15 16 17
000
FTUS43 KFSD 220527
TAFHON
TAF
KHON 220527Z 2206/2306 15008KT P6SM BKN250
     FM221400 14008KT P6SM OVC080
     FM221600 14009KT 3SM -SN OVC030
     FM221900 13009KT 1SM -SN OVC020
     FM230300 12004KT P6SM OVC010=

USA.gov is the U.S. government's official web portal to all federal, state and local government web resources and services.